createdAt,value
2019-04-26T00:01:21.207Z,3.77
2019-04-26T00:03:49.893Z,5.33
2019-04-26T00:06:17.354Z,3.33
2019-04-26T00:08:46.190Z,4.60
2019-04-26T00:11:18.186Z,3.70
2019-04-26T00:14:03.710Z,4.42
2019-04-26T00:16:32.553Z,5.37
2019-04-26T00:18:59.850Z,4.97
2019-04-26T00:21:27.349Z,5.40
2019-04-26T00:23:54.950Z,6.72
2019-04-26T00:26:22.339Z,7.10
2019-04-26T00:28:49.639Z,6.42
2019-04-26T00:31:17.191Z,7.10
2019-04-26T00:33:44.570Z,6.78
2019-04-26T00:36:12.338Z,7.55
2019-04-26T00:38:40.735Z,6.60
2019-04-26T00:41:07.963Z,7.60
2019-04-26T00:43:35.357Z,7.62
2019-04-26T00:46:02.542Z,7.97
2019-04-26T00:48:29.750Z,9.30
2019-04-26T00:50:56.929Z,8.30
2019-04-26T00:53:24.521Z,8.80
2019-04-26T00:55:51.824Z,8.23
2019-04-26T00:58:20.343Z,8.28
2019-04-26T01:00:48.080Z,7.92
2019-04-26T01:03:16.566Z,7.78
2019-04-26T01:05:43.799Z,8.33
2019-04-26T01:08:11.003Z,9.05
2019-04-26T01:10:38.292Z,9.10
2019-04-26T01:13:05.549Z,8.60
2019-04-26T01:15:32.811Z,9.78
2019-04-26T01:18:00.151Z,10.18
2019-04-26T01:20:27.357Z,10.50
2019-04-26T01:22:56.511Z,10.53
2019-04-26T01:25:31.127Z,11.80
2019-04-26T01:27:58.348Z,11.90
2019-04-26T01:30:25.855Z,13.90
2019-04-26T01:32:54.956Z,12.37
2019-04-26T01:35:41.604Z,12.88
2019-04-26T01:46:54.557Z,14.60
2019-04-26T01:49:22.363Z,13.10
2019-04-26T01:51:51.442Z,13.35
2019-04-26T01:54:19.052Z,14.90
2019-04-26T01:56:46.296Z,12.87
2019-04-26T01:59:13.751Z,14.73
2019-04-26T02:01:54.635Z,13.35
2019-04-26T02:04:23.893Z,16.30
2019-04-26T02:06:51.192Z,17.00
2019-04-26T02:09:18.520Z,13.60
2019-04-26T02:11:45.737Z,15.00
2019-04-26T02:14:13.021Z,13.30
2019-04-26T02:16:40.314Z,13.80
2019-04-26T02:19:07.515Z,14.35
2019-04-26T02:21:36.393Z,13.75
2019-04-26T02:24:11.172Z,16.77
2019-04-26T02:26:40.139Z,14.63
2019-04-26T02:29:08.975Z,15.25
2019-04-26T02:31:37.791Z,16.10
2019-04-26T02:34:05.242Z,17.60
2019-04-26T02:36:53.065Z,15.65
2019-04-26T02:39:01.960Z,15.10
2019-04-26T02:41:31.072Z,16.33
2019-04-26T02:43:59.384Z,16.67
2019-04-26T02:46:31.202Z,14.53
2019-04-26T02:49:01.767Z,14.38
2019-04-26T02:51:32.504Z,12.37
2019-04-26T02:54:00.154Z,14.28
2019-04-26T02:56:35.650Z,14.13
2019-04-26T02:59:10.675Z,13.13
2019-04-26T03:01:38.770Z,15.28
2019-04-26T03:04:06.985Z,14.68
2019-04-26T03:06:36.622Z,14.10
2019-04-26T03:09:05.957Z,13.33
2019-04-26T03:11:35.122Z,14.70
2019-04-26T03:14:07.621Z,14.68
2019-04-26T03:16:46.321Z,15.55
2019-04-26T03:19:22.930Z,14.18
2019-04-26T03:21:57.741Z,14.20
2019-04-26T03:24:26.641Z,14.85
2019-04-26T03:26:55.548Z,14.53
2019-04-26T03:29:23.749Z,15.00
2019-04-26T03:31:54.920Z,14.95
2019-04-26T03:34:27.156Z,14.90
2019-04-26T03:37:20.403Z,14.30
2019-04-26T03:39:45.051Z,16.80
2019-04-26T03:42:18.610Z,18.10
2019-04-26T03:45:04.244Z,16.37
2019-04-26T03:47:35.625Z,19.65
2019-04-26T03:50:04.000Z,18.55
2019-04-26T03:52:35.327Z,17.40
2019-04-26T03:55:04.029Z,17.15
2019-04-26T03:57:42.170Z,15.50
2019-04-26T04:00:12.798Z,15.70
2019-04-26T04:03:04.669Z,19.67
2019-04-26T04:05:47.769Z,19.05
2019-04-26T04:08:16.816Z,19.53
2019-04-26T04:10:48.889Z,18.95
2019-04-26T04:13:19.431Z,18.87
2019-04-26T04:15:48.556Z,16.20
2019-04-26T04:18:19.257Z,19.05
2019-04-26T04:21:08.060Z,16.27
2019-04-26T04:23:43.541Z,17.07
2019-04-26T04:26:11.886Z,16.17
2019-04-26T04:28:42.516Z,16.77
2019-04-26T04:31:14.323Z,15.63
2019-04-26T04:33:45.246Z,15.23
2019-04-26T04:36:13.882Z,15.80
2019-04-26T04:38:44.136Z,14.63
2019-04-26T04:41:17.873Z,17.30
2019-04-26T04:43:54.037Z,16.60
2019-04-26T04:46:27.410Z,14.87
2019-04-26T04:49:07.241Z,16.37
2019-04-26T04:51:39.304Z,14.85
2019-04-26T04:54:17.280Z,14.00
2019-04-26T04:57:02.787Z,15.05
2019-04-26T04:59:34.439Z,13.40
2019-04-26T05:02:10.838Z,13.65
2019-04-26T05:04:39.735Z,13.35
2019-04-26T05:07:22.338Z,13.53
2019-04-26T05:09:57.124Z,12.68
2019-04-26T05:12:29.206Z,10.93
2019-04-26T05:15:14.905Z,11.53
2019-04-26T05:17:47.466Z,12.13
2019-04-26T05:20:31.555Z,13.32
2019-04-26T05:23:06.359Z,12.50
2019-04-26T05:25:46.861Z,12.10
2019-04-26T05:28:20.996Z,12.28
2019-04-26T05:31:08.123Z,12.33
2019-04-26T05:33:46.133Z,11.85
2019-04-26T05:36:31.339Z,12.98
2019-04-26T05:39:03.209Z,11.28
2019-04-26T05:41:51.488Z,12.78
2019-04-26T05:44:28.183Z,13.20
2019-04-26T05:47:21.986Z,12.50
2019-04-26T05:50:14.820Z,12.03
2019-04-26T05:52:51.652Z,12.98
2019-04-26T05:55:22.349Z,14.80
2019-04-26T05:58:02.783Z,13.25
2019-04-26T06:00:50.400Z,13.10
2019-04-26T06:03:33.098Z,14.28
2019-04-26T06:06:06.590Z,14.93
2019-04-26T06:08:40.130Z,13.98
2019-04-26T06:11:09.045Z,14.40
2019-04-26T06:13:52.318Z,13.18
2019-04-26T06:16:42.619Z,12.90
2019-04-26T06:19:15.707Z,11.28
2019-04-26T06:21:52.239Z,14.20
2019-04-26T06:24:36.244Z,12.88
2019-04-26T06:27:23.664Z,14.93
2019-04-26T06:29:56.579Z,13.50
2019-04-26T06:32:34.711Z,12.10
2019-04-26T06:35:11.862Z,14.18
2019-04-26T06:37:55.341Z,13.62
2019-04-26T06:40:24.293Z,13.07
2019-04-26T06:43:00.535Z,13.93
2019-04-26T06:45:58.517Z,13.22
2019-04-26T06:48:35.082Z,13.28
2019-04-26T06:51:04.869Z,11.93
2019-04-26T06:53:46.373Z,12.50
2019-04-26T06:56:19.709Z,13.20
2019-04-26T06:58:50.294Z,12.73
2019-04-26T07:01:20.917Z,12.85
2019-04-26T07:04:06.338Z,12.50
2019-04-26T07:06:35.501Z,12.73
2019-04-26T07:09:06.417Z,12.82
2019-04-26T07:11:36.988Z,13.08
2019-04-26T07:14:17.628Z,12.40
2019-04-26T07:17:03.118Z,12.75
2019-04-26T07:20:02.495Z,12.80
2019-04-26T07:22:38.797Z,12.93
2019-04-26T07:25:18.679Z,12.47
2019-04-26T07:27:47.774Z,12.75
2019-04-26T07:30:16.830Z,12.78
2019-04-26T07:33:02.825Z,12.20
2019-04-26T07:35:40.658Z,11.48
2019-04-26T07:38:18.861Z,10.40
2019-04-26T07:40:52.537Z,10.38
2019-04-26T07:43:23.094Z,9.23
2019-04-26T07:46:09.149Z,10.38
2019-04-26T07:48:41.076Z,10.68
2019-04-26T07:51:26.428Z,10.93
2019-04-26T07:54:12.971Z,13.62
2019-04-26T07:56:58.956Z,15.72
2019-04-26T07:59:33.619Z,15.25
2019-04-26T08:02:05.074Z,15.40
2019-04-26T08:04:34.995Z,14.35
2019-04-26T08:07:10.371Z,14.63
2019-04-26T08:09:37.713Z,15.30
2019-04-26T08:12:06.068Z,13.83
2019-04-26T08:14:36.827Z,10.63
2019-04-26T08:17:28.935Z,10.72
2019-04-26T08:20:20.530Z,11.07
2019-04-26T08:22:52.091Z,9.43
2019-04-26T08:25:18.396Z,12.40
2019-04-26T08:27:45.663Z,11.15
2019-04-26T08:30:16.162Z,12.83
2019-04-26T08:32:46.728Z,13.55
2019-04-26T08:35:18.983Z,16.85
2019-04-26T08:37:51.172Z,19.73
2019-04-26T08:40:27.285Z,19.13
2019-04-26T08:42:53.280Z,18.52
2019-04-26T08:45:29.295Z,18.97
2019-04-26T08:48:15.211Z,17.40
2019-04-26T08:53:28.376Z,16.57
2019-04-26T08:55:55.676Z,16.07
2019-04-26T08:58:22.903Z,17.55
2019-04-26T09:01:00.889Z,15.00
2019-04-26T09:03:32.312Z,14.00
2019-04-26T09:06:09.161Z,13.53
2019-04-26T09:08:39.196Z,13.15
2019-04-26T09:11:06.312Z,11.38
2019-04-26T09:13:37.753Z,11.48
2019-04-26T09:16:05.683Z,12.75
2019-04-26T09:18:43.046Z,12.25
2019-04-26T09:21:01.849Z,11.65
2019-04-26T09:23:50.920Z,11.35
2019-04-26T09:26:34.178Z,10.30
2019-04-26T09:29:12.264Z,9.80
2019-04-26T09:31:43.837Z,9.53
2019-04-26T09:34:21.305Z,10.47
2019-04-26T09:36:48.616Z,11.75
2019-04-26T09:39:16.257Z,12.70
2019-04-26T09:41:43.547Z,12.15
2019-04-26T09:44:12.496Z,12.80
2019-04-26T09:46:54.308Z,12.28
2019-04-26T09:49:25.910Z,10.80
2019-04-26T09:51:53.232Z,10.28
2019-04-26T09:54:20.493Z,10.65
2019-04-26T09:56:51.082Z,10.00
2019-04-26T09:59:19.465Z,10.88
2019-04-26T10:01:46.666Z,13.00
2019-04-26T10:04:14.453Z,12.95
2019-04-26T10:06:42.238Z,11.38
2019-04-26T10:09:12.321Z,13.00
2019-04-26T10:11:43.579Z,12.68
2019-04-26T10:14:11.899Z,7.70
2019-04-26T10:16:43.780Z,7.90
2019-04-26T10:19:11.650Z,7.70
2019-04-26T10:21:38.838Z,6.87
2019-04-26T10:24:08.374Z,6.05
2019-04-26T10:26:34.978Z,5.80
2019-04-26T10:29:02.181Z,5.27
2019-04-26T10:31:29.484Z,5.10
2019-04-26T10:33:56.680Z,5.65
2019-04-26T10:36:26.290Z,4.50
2019-04-26T10:38:54.480Z,5.90
2019-04-26T10:41:21.809Z,5.40
2019-04-26T10:43:49.104Z,5.25
2019-04-26T10:46:16.409Z,4.70
2019-04-26T10:48:45.527Z,5.03
2019-04-26T10:51:14.268Z,4.70
2019-04-26T10:54:01.590Z,4.92
2019-04-26T10:56:43.115Z,4.62
2019-04-26T10:59:14.967Z,5.97
2019-04-26T11:01:42.219Z,5.30
2019-04-26T11:04:09.453Z,5.03
2019-04-26T11:06:36.664Z,5.00
2019-04-26T11:09:05.000Z,3.77
2019-04-26T11:11:32.292Z,4.90
2019-04-26T11:13:59.597Z,4.65
2019-04-26T11:16:26.809Z,4.90
2019-04-26T11:18:57.243Z,3.83
2019-04-26T11:21:23.076Z,6.12
2019-04-26T11:23:50.349Z,6.20
2019-04-26T11:26:17.693Z,4.90
2019-04-26T11:28:45.023Z,5.92
2019-04-26T11:31:12.356Z,4.28
2019-04-26T11:33:44.944Z,5.10
2019-04-26T11:36:08.841Z,4.67
2019-04-26T11:38:36.230Z,4.45
2019-04-26T11:41:06.129Z,5.25
2019-04-26T11:43:32.438Z,3.12
2019-04-26T11:46:04.739Z,5.00
2019-04-26T11:48:29.301Z,5.55
2019-04-26T11:50:57.874Z,4.85
2019-04-26T11:53:25.072Z,4.90
2019-04-26T11:55:52.341Z,4.67
2019-04-26T11:58:22.542Z,3.77
2019-04-26T12:00:52.959Z,4.15
2019-04-26T12:03:21.216Z,3.10
2019-04-26T12:06:03.092Z,4.50
2019-04-26T12:08:32.158Z,3.42
2019-04-26T12:10:59.426Z,3.17
2019-04-26T12:13:26.816Z,3.05
2019-04-26T12:15:54.038Z,5.55
2019-04-26T12:27:53.597Z,3.52
2019-04-26T12:30:24.938Z,3.30
2019-04-26T12:32:50.213Z,3.45
2019-04-26T12:35:17.973Z,4.37
2019-04-26T12:37:45.379Z,3.77
2019-04-26T12:40:12.786Z,3.25
2019-04-26T12:42:43.433Z,4.22
2019-04-26T12:45:18.356Z,3.33
2019-04-26T12:47:50.179Z,3.90
2019-04-26T12:50:17.600Z,3.40
2019-04-26T12:52:45.129Z,4.30
2019-04-26T12:55:13.811Z,4.53
2019-04-26T12:57:42.419Z,2.65
2019-04-26T13:00:11.574Z,3.47
2019-04-26T13:02:38.876Z,3.08
2019-04-26T13:07:54.635Z,3.17
2019-04-26T13:10:23.689Z,3.20
2019-04-26T13:13:04.714Z,4.72
2019-04-26T13:15:57.787Z,4.25
2019-04-26T13:18:25.208Z,4.10
2019-04-26T13:20:52.811Z,5.60
2019-04-26T13:23:20.226Z,5.83
2019-04-26T13:25:47.544Z,4.55
2019-04-26T13:28:15.704Z,5.42
2019-04-26T13:30:44.933Z,6.17
2019-04-26T13:33:12.310Z,6.12
2019-04-26T13:35:41.289Z,5.40
2019-04-26T13:38:10.021Z,4.90
2019-04-26T13:40:40.159Z,5.42
2019-04-26T13:43:08.947Z,6.90
2019-04-26T13:45:40.775Z,6.60
2019-04-26T13:48:13.163Z,8.50
2019-04-26T13:50:44.831Z,6.15
2019-04-26T13:53:12.073Z,7.58
2019-04-26T13:55:39.489Z,7.40
2019-04-26T13:58:07.948Z,4.72
2019-04-26T14:00:35.230Z,7.22
2019-04-26T14:03:02.741Z,6.67
2019-04-26T14:05:30.099Z,6.43
2019-04-26T14:07:57.427Z,5.05
2019-04-26T14:10:24.935Z,4.90
2019-04-26T14:12:52.224Z,6.08
2019-04-26T14:15:19.628Z,4.75
2019-04-26T14:17:47.489Z,5.13
2019-04-26T14:20:14.756Z,4.75
2019-04-26T14:22:43.738Z,3.87
2019-04-26T14:25:15.510Z,3.58
2019-04-26T14:27:45.333Z,3.90
2019-04-26T14:30:13.428Z,6.00
2019-04-26T14:32:42.659Z,4.70
2019-04-26T14:35:11.525Z,3.92
2019-04-26T14:37:38.845Z,4.20
2019-04-26T14:40:16.627Z,5.42
2019-04-26T14:42:42.231Z,3.57
2019-04-26T14:45:07.313Z,4.47
2019-04-26T14:47:46.768Z,4.15
2019-04-26T14:50:13.738Z,4.55
2019-04-26T14:52:34.625Z,5.62
2019-04-26T14:55:01.945Z,5.40
2019-04-26T14:57:31.673Z,5.70
2019-04-26T14:59:59.421Z,6.47
2019-04-26T15:02:28.360Z,5.25
2019-04-26T15:05:09.181Z,5.22
2019-04-26T15:07:48.579Z,4.35
2019-04-26T15:10:06.910Z,3.47
2019-04-26T15:12:45.867Z,4.87
2019-04-26T15:15:05.604Z,3.25
2019-04-26T15:17:32.950Z,3.17
2019-04-26T15:20:00.286Z,3.77
2019-04-26T15:22:27.623Z,2.70
2019-04-26T15:24:54.915Z,2.67
2019-04-26T15:27:22.282Z,4.30
2019-04-26T15:29:49.550Z,3.95
2019-04-26T15:32:16.869Z,4.75
2019-04-26T15:34:44.173Z,4.70
2019-04-26T15:37:12.846Z,2.07
2019-04-26T15:39:58.953Z,3.42
2019-04-26T15:42:37.122Z,3.20
2019-04-26T15:45:07.071Z,2.47
2019-04-26T15:47:36.028Z,3.27
2019-04-26T15:50:09.912Z,3.72
2019-04-26T15:52:35.639Z,2.30
2019-04-26T15:55:06.053Z,2.10
2019-04-26T15:57:34.687Z,2.90
2019-04-26T16:00:04.170Z,3.63
2019-04-26T16:02:32.126Z,2.40
2019-04-26T16:04:59.443Z,3.42
2019-04-26T16:07:28.780Z,2.30
2019-04-26T16:09:57.304Z,2.08
2019-04-26T16:12:27.084Z,2.85
2019-04-26T16:14:53.659Z,2.70
2019-04-26T16:17:20.979Z,3.12
2019-04-26T16:19:48.377Z,2.40
2019-04-26T16:22:15.936Z,2.27
2019-04-26T16:24:43.215Z,4.28
2019-04-26T16:27:10.575Z,3.08
2019-04-26T16:29:50.849Z,2.45
2019-04-26T16:32:32.545Z,4.67
2019-04-26T16:35:00.793Z,3.25
2019-04-26T16:37:29.792Z,4.15
2019-04-26T16:39:57.117Z,3.77
2019-04-26T16:42:24.404Z,2.87
2019-04-26T16:44:53.151Z,4.42
2019-04-26T16:47:20.769Z,4.43
2019-04-26T16:49:48.092Z,4.43
2019-04-26T16:52:15.367Z,4.50
2019-04-26T16:54:43.133Z,3.75
2019-04-26T16:57:11.360Z,3.45
2019-04-26T16:59:46.848Z,3.20
2019-04-26T17:02:08.528Z,4.55
2019-04-26T17:04:36.415Z,4.05
2019-04-26T17:07:05.020Z,4.30
2019-04-26T17:09:54.428Z,5.63
2019-04-26T17:12:02.530Z,4.00
2019-04-26T17:14:29.793Z,4.53
2019-04-26T17:16:57.067Z,5.03
2019-04-26T17:19:24.320Z,5.53
2019-04-26T17:22:01.038Z,4.80
2019-04-26T17:24:29.617Z,4.37
2019-04-26T17:27:01.643Z,4.03
2019-04-26T17:29:31.864Z,5.55
2019-04-26T17:31:59.541Z,3.87
2019-04-26T17:34:29.099Z,3.55
2019-04-26T17:36:55.841Z,3.60
2019-04-26T17:39:23.216Z,3.37
2019-04-26T17:41:54.085Z,5.10
2019-04-26T17:44:20.640Z,4.47
2019-04-26T17:46:49.000Z,4.53
2019-04-26T17:49:21.471Z,3.02
2019-04-26T17:51:46.432Z,4.03
2019-04-26T17:54:40.852Z,3.33
2019-04-26T17:56:43.129Z,3.35
2019-04-26T17:59:13.787Z,5.25
2019-04-26T18:01:45.223Z,5.45
2019-04-26T18:04:08.487Z,4.30
2019-04-26T18:06:35.731Z,3.00
2019-04-26T18:09:03.070Z,4.72
2019-04-26T18:11:30.352Z,2.77
2019-04-26T18:13:57.685Z,4.92
2019-04-26T18:16:29.190Z,4.15
2019-04-26T18:18:56.166Z,3.47
2019-04-26T18:21:28.571Z,5.42
2019-04-26T18:23:57.256Z,5.53
2019-04-26T18:26:24.760Z,4.42
2019-04-26T18:28:55.005Z,5.47
2019-04-26T18:31:22.128Z,4.72
2019-04-26T18:33:49.967Z,4.85
2019-04-26T18:36:17.403Z,4.65
2019-04-26T18:38:48.603Z,5.15
2019-04-26T18:41:13.779Z,4.83
2019-04-26T18:43:42.728Z,5.57
2019-04-26T18:46:12.841Z,5.60
2019-04-26T18:48:41.955Z,4.58
2019-04-26T18:51:11.076Z,6.03
2019-04-26T18:53:45.859Z,6.92
2019-04-26T18:56:13.973Z,5.62
2019-04-26T18:58:41.236Z,5.25
2019-04-26T19:01:10.155Z,5.22
2019-04-26T19:03:37.419Z,5.00
2019-04-26T19:06:05.786Z,5.40
2019-04-26T19:08:43.874Z,5.08
2019-04-26T19:11:07.639Z,5.37
2019-04-26T19:13:51.555Z,5.50
2019-04-26T19:16:21.617Z,7.25
2019-04-26T19:18:56.555Z,6.73
2019-04-26T19:21:32.225Z,5.40
2019-04-26T19:24:07.213Z,5.92
2019-04-26T19:26:33.105Z,6.97
2019-04-26T19:28:58.386Z,5.17
2019-04-26T19:31:27.364Z,6.05
2019-04-26T19:33:56.121Z,5.37
2019-04-26T19:36:26.050Z,6.33
2019-04-26T19:38:53.257Z,5.65
2019-04-26T19:41:21.549Z,6.27
2019-04-26T19:43:49.764Z,6.08
2019-04-26T19:46:25.106Z,6.17
2019-04-26T19:48:56.568Z,6.53
2019-04-26T19:52:52.739Z,5.70
2019-04-26T19:55:41.805Z,6.00
2019-04-26T19:58:09.781Z,5.87
2019-04-26T20:00:38.492Z,6.55
2019-04-26T20:03:08.466Z,6.17
2019-04-26T20:05:36.364Z,4.53
2019-04-26T20:08:06.116Z,5.10
2019-04-26T20:10:34.517Z,6.60
2019-04-26T20:13:02.670Z,5.58
2019-04-26T20:15:31.659Z,5.37
2019-04-26T20:18:00.076Z,6.53
2019-04-26T20:20:32.223Z,5.63
2019-04-26T20:22:59.369Z,5.67
2019-04-26T20:25:26.417Z,7.57
2019-04-26T20:27:59.892Z,7.20
2019-04-26T20:30:42.208Z,7.60
2019-04-26T20:33:09.630Z,7.17
2019-04-26T20:35:36.958Z,6.72
2019-04-26T20:38:04.869Z,7.30
2019-04-26T20:40:32.440Z,8.73
2019-04-26T20:43:05.651Z,7.85
2019-04-26T20:45:38.934Z,7.33
2019-04-26T20:47:57.633Z,8.53
2019-04-26T20:50:28.561Z,6.25
2019-04-26T20:53:00.842Z,7.72
2019-04-26T20:55:30.231Z,10.05
2019-04-26T20:57:52.305Z,9.43
2019-04-26T21:00:19.750Z,8.77
2019-04-26T21:02:47.066Z,8.03
2019-04-26T21:05:14.796Z,8.73
2019-04-26T21:07:49.216Z,7.10
2019-04-26T21:10:14.629Z,5.53
2019-04-26T21:12:41.774Z,5.35
2019-04-26T21:15:09.258Z,5.12
2019-04-26T21:17:36.524Z,5.78
2019-04-26T21:20:05.590Z,6.92
2019-04-26T21:22:32.887Z,6.70
2019-04-26T21:25:04.870Z,6.72
2019-04-26T21:27:34.102Z,6.85
2019-04-26T21:30:06.062Z,5.53
2019-04-26T21:32:37.048Z,7.28
2019-04-26T21:35:06.454Z,6.60
2019-04-26T21:37:35.934Z,5.45
2019-04-26T21:40:23.225Z,4.87
2019-04-26T21:42:55.766Z,4.87
2019-04-26T21:45:21.642Z,5.17
2019-04-26T21:47:48.551Z,4.05
2019-04-26T21:50:15.842Z,4.60
2019-04-26T21:52:43.314Z,3.00
2019-04-26T21:55:12.074Z,3.98
2019-04-26T21:57:39.378Z,5.67
2019-04-26T22:00:09.446Z,5.03
2019-04-26T22:02:37.587Z,6.30
2019-04-26T22:05:08.001Z,5.00
2019-04-26T22:07:35.122Z,4.92
2019-04-26T22:10:09.434Z,4.22
2019-04-26T22:12:34.811Z,5.53
2019-04-26T22:15:04.570Z,5.33
2019-04-26T22:17:40.432Z,4.25
2019-04-26T22:20:12.898Z,3.87
2019-04-26T22:22:41.568Z,3.77
2019-04-26T22:25:08.331Z,4.05
2019-04-26T22:27:35.640Z,4.45
2019-04-26T22:30:04.906Z,2.55
2019-04-26T22:32:33.366Z,2.55
2019-04-26T22:35:00.817Z,2.85
2019-04-26T22:37:29.955Z,4.58
2019-04-26T22:39:56.970Z,3.12
2019-04-26T22:42:25.880Z,4.58
2019-04-26T22:45:09.326Z,4.00
2019-04-26T22:47:42.481Z,3.98
2019-04-26T22:50:06.728Z,4.47
2019-04-26T22:52:34.030Z,4.03
2019-04-26T22:55:03.984Z,3.17
2019-04-26T22:57:33.274Z,4.28
2019-04-26T23:00:00.241Z,3.17
2019-04-26T23:02:27.927Z,3.50
2019-04-26T23:04:55.929Z,3.60
2019-04-26T23:07:26.205Z,3.90
2019-04-26T23:09:55.518Z,3.47
2019-04-26T23:12:28.371Z,3.70
2019-04-26T23:14:57.478Z,4.08
2019-04-26T23:17:43.635Z,3.75
2019-04-26T23:20:18.558Z,5.92
2019-04-26T23:22:45.890Z,5.55
2019-04-26T23:25:13.636Z,3.85
2019-04-26T23:27:41.020Z,4.28
2019-04-26T23:30:08.840Z,5.40
2019-04-26T23:32:37.872Z,5.17
2019-04-26T23:35:06.174Z,4.67
2019-04-26T23:37:33.649Z,4.33
2019-04-26T23:40:00.944Z,4.65
2019-04-26T23:42:28.246Z,5.12
2019-04-26T23:44:55.563Z,4.53
2019-04-26T23:47:25.398Z,4.17
2019-04-26T23:49:53.958Z,4.55
2019-04-26T23:52:20.902Z,4.33
2019-04-26T23:54:48.104Z,3.52
2019-04-26T23:57:15.379Z,5.12
2019-04-26T23:59:43.136Z,4.25
